Oswestry, United Kingdom
Current Conditions -  °F | °C
As of 9:50 PM on Wednesday 28 Jan 2015 (Local Time) from EGOS Reporting Station
Broken Clouds Broken Clouds  
Wind Chill: 28°   Ceiling: 4500
Heat Index: 37°   Visibility: 6mi
Dew Point: 28°   Wind: 16mph
Humidity: 70%   Direction: 250°WSW
Pressure: 29.41"   Gusts: NA
Location:  52.82°N, 3.29°W
Report Text: EGOS 282150Z 25014KT 9999 FEW020 BKN045 03/M02 Q0996 BLU TEMPO 6000 -SHRASN SCT018 WHT
Loading
Personal Weather Stations






























Interactive Weather Map New forecast layout! Learn more

10-Day Weather Forecast

Advertisements
Track Severe Weather on mobile